Time;durP1;ratioP1;P1;durP2;ratioP2;P2;SDS_P1;SDS_P2;PMS_P1;PMS_P2;Temp;Humidity;BMP_temperature;BMP_pressure;BME280_temperature;BME280_humidity;BME280_pressure;Samples;Min_cycle;Max_cycle;Signal;HPM_P1;HPM_P2
2022/04/18 00:02:13;;;;;;;1.75;1.10;;;9.60;61.20;;;;;;5093303;28;20377;-79
2022/04/18 00:04:38;;;;;;;1.88;1.27;;;9.50;61.40;;;;;;5093754;28;20020;-78
2022/04/18 00:07:04;;;;;;;1.77;1.08;;;9.60;62.30;;;;;;5093251;28;20028;-78
2022/04/18 00:09:33;;;;;;;1.50;1.10;;;9.50;62.80;;;;;;5093550;28;20028;-78
2022/04/18 00:11:58;;;;;;;4.30;1.23;;;9.60;62.30;;;;;;5094628;28;20016;-78
2022/04/18 00:14:25;;;;;;;4.10;1.50;;;9.60;61.50;;;;;;5092634;28;20026;-78
2022/04/18 00:16:50;;;;;;;3.85;1.38;;;9.50;61.80;;;;;;5094439;28;20114;-78
2022/04/18 00:19:16;;;;;;;3.38;1.48;;;9.50;62.90;;;;;;5092725;28;20052;-78
2022/04/18 00:21:42;;;;;;;3.78;1.55;;;9.40;63.20;;;;;;5092855;28;20028;-78
2022/04/18 00:24:10;;;;;;;3.53;1.50;;;9.30;63.80;;;;;;5092969;28;20115;-78
2022/04/18 00:26:37;;;;;;;2.15;1.20;;;9.30;63.60;;;;;;5093183;28;20019;-78
2022/04/18 00:29:02;;;;;;;2.00;1.02;;;9.30;63.70;;;;;;5092885;28;20048;-80
2022/04/18 00:31:28;;;;;;;2.17;1.10;;;9.20;64.10;;;;;;5093114;28;20059;-78
2022/04/18 00:33:54;;;;;;;3.90;1.42;;;9.10;64.20;;;;;;5094397;28;20020;-78
2022/04/18 00:36:19;;;;;;;1.80;1.20;;;9.10;64.00;;;;;;5093834;28;20028;-77
2022/04/18 00:38:45;;;;;;;1.88;1.25;;;9.10;64.90;;;;;;5092708;28;20064;-77
2022/04/18 00:41:11;;;;;;;2.97;1.20;;;9.00;64.80;;;;;;5092160;28;20020;-76
2022/04/18 00:43:42;;;;;;;1.48;1.02;;;9.00;65.30;;;;;;5092802;28;20020;-77
2022/04/18 00:46:09;;;;;;;1.97;1.20;;;8.90;65.60;;;;;;5092558;28;20020;-77
2022/04/18 00:48:35;;;;;;;1.80;1.13;;;8.80;65.80;;;;;;5094050;28;20103;-77
2022/04/18 00:51:01;;;;;;;1.40;1.10;;;8.80;66.30;;;;;;5092673;28;20449;-77
2022/04/18 00:53:27;;;;;;;2.15;1.15;;;8.80;66.00;;;;;;5093786;28;20089;-78
2022/04/18 00:55:53;;;;;;;2.88;1.27;;;8.80;66.20;;;;;;5093878;28;20437;-78
2022/04/18 00:58:20;;;;;;;2.13;1.25;;;8.80;66.30;;;;;;5092672;28;20028;-78
2022/04/18 01:00:45;;;;;;;2.30;1.60;;;8.80;66.70;;;;;;5092958;28;20031;-79
2022/04/18 01:03:11;;;;;;;2.35;1.23;;;8.70;67.00;;;;;;5092708;28;20016;-79
2022/04/18 01:05:37;;;;;;;1.40;1.00;;;8.70;67.20;;;;;;5094064;28;20406;-79
2022/04/18 01:08:05;;;;;;;1.90;1.20;;;8.60;68.10;;;;;;5092728;28;20036;-79
2022/04/18 01:10:30;;;;;;;2.47;1.52;;;8.70;68.30;;;;;;5092839;28;20035;-78
2022/04/18 01:12:56;;;;;;;2.88;1.50;;;8.60;69.10;;;;;;5092477;28;20020;-78
2022/04/18 01:15:21;;;;;;;2.90;1.20;;;8.60;69.10;;;;;;5092248;28;20024;-78
2022/04/18 01:17:47;;;;;;;3.78;1.80;;;8.60;69.20;;;;;;5092548;28;20049;-78
2022/04/18 01:20:13;;;;;;;3.05;1.52;;;8.60;69.40;;;;;;5092347;28;20025;-78
2022/04/18 01:22:42;;;;;;;2.00;1.10;;;8.50;69.70;;;;;;5092550;28;20453;-78
2022/04/18 01:30:37;;;;;;;2.00;1.30;;;8.40;70.50;;;;;;5093393;28;20081;-77
2022/04/18 01:33:03;;;;;;;2.22;1.25;;;8.40;70.80;;;;;;5092478;28;20027;-78
2022/04/18 01:35:29;;;;;;;3.85;1.30;;;8.40;70.80;;;;;;5093011;28;20020;-78
2022/04/18 01:37:54;;;;;;;2.70;1.50;;;8.40;71.30;;;;;;5092177;28;20030;-77
2022/04/18 01:40:20;;;;;;;5.50;1.70;;;8.30;71.20;;;;;;5091955;28;20028;-77
2022/04/18 01:42:46;;;;;;;6.22;1.75;;;8.30;71.80;;;;;;5092609;28;20031;-77
2022/04/18 01:45:11;;;;;;;2.85;1.67;;;8.30;71.80;;;;;;5091996;28;20016;-77
2022/04/18 01:47:37;;;;;;;3.40;1.70;;;8.30;72.20;;;;;;5092478;28;20061;-77
2022/04/18 01:50:03;;;;;;;2.15;1.20;;;8.20;72.30;;;;;;5092196;28;20047;-77
2022/04/18 01:52:29;;;;;;;3.03;1.58;;;8.20;72.50;;;;;;5091503;28;20181;-76
2022/04/18 01:54:54;;;;;;;2.50;1.55;;;8.20;72.50;;;;;;5093922;28;20044;-76
2022/04/18 01:57:20;;;;;;;1.85;1.40;;;8.10;73.10;;;;;;5095177;28;20048;-77
2022/04/18 01:59:45;;;;;;;3.35;1.60;;;8.10;73.90;;;;;;5097152;28;20094;-77
2022/04/18 02:02:11;;;;;;;2.28;1.38;;;8.10;74.10;;;;;;5095361;28;20039;-77
2022/04/18 02:04:37;;;;;;;4.68;1.80;;;8.10;74.40;;;;;;5096506;28;20372;-77
2022/04/18 02:07:02;;;;;;;2.60;1.52;;;8.10;74.70;;;;;;5095777;28;20032;-76
2022/04/18 02:09:28;;;;;;;3.40;1.50;;;8.10;74.90;;;;;;5095245;28;20437;-76
2022/04/18 02:11:54;;;;;;;5.32;1.58;;;8.10;75.00;;;;;;5095518;28;20024;-77
2022/04/18 02:14:19;;;;;;;2.40;1.73;;;8.10;75.20;;;;;;5095058;28;20024;-78
2022/04/18 02:16:45;;;;;;;3.10;1.50;;;8.10;75.20;;;;;;5095748;28;20031;-78
2022/04/18 02:19:10;;;;;;;3.50;1.58;;;8.10;75.50;;;;;;5096428;28;20028;-79
2022/04/18 02:21:36;;;;;;;4.20;1.80;;;8.10;76.60;;;;;;5095698;28;20453;-78
2022/04/18 02:24:02;;;;;;;3.78;1.58;;;8.00;76.90;;;;;;5096783;28;20024;-78
2022/04/18 02:26:27;;;;;;;3.90;1.65;;;8.00;77.50;;;;;;5096229;28;20055;-78
2022/04/18 02:28:53;;;;;;;5.43;1.60;;;8.00;77.60;;;;;;5096654;28;20028;-78
2022/04/18 02:31:18;;;;;;;3.15;1.70;;;7.90;77.80;;;;;;5094889;28;20039;-79
2022/04/18 02:33:44;;;;;;;2.78;1.55;;;7.90;78.20;;;;;;5096364;28;20024;-79
2022/04/18 02:36:10;;;;;;;3.45;1.63;;;7.90;79.30;;;;;;5094539;28;20039;-82
2022/04/18 02:38:35;;;;;;;2.83;1.60;;;7.80;79.30;;;;;;5096203;28;20107;-78
2022/04/18 02:41:01;;;;;;;2.75;1.52;;;7.80;80.00;;;;;;5094914;28;20449;-78
2022/04/18 02:43:26;;;;;;;1.90;1.52;;;7.70;80.10;;;;;;5094632;28;20475;-78
2022/04/18 02:45:52;;;;;;;2.30;1.45;;;7.70;79.90;;;;;;5096013;28;20104;-78
2022/04/18 02:48:18;;;;;;;3.25;1.60;;;7.70;80.30;;;;;;5094228;28;20452;-78
2022/04/18 02:50:43;;;;;;;2.00;1.50;;;7.60;81.30;;;;;;5095111;28;20027;-76
2022/04/18 02:53:09;;;;;;;4.53;1.98;;;7.60;80.70;;;;;;5095628;28;20020;-77
2022/04/18 02:55:34;;;;;;;3.35;1.60;;;7.60;81.40;;;;;;5093828;28;20062;-77
2022/04/18 02:58:00;;;;;;;4.70;1.70;;;7.50;81.50;;;;;;5095641;28;20097;-77
2022/04/18 03:00:26;;;;;;;3.60;1.70;;;7.50;82.10;;;;;;5093948;28;20459;-77
2022/04/18 03:02:51;;;;;;;3.95;1.70;;;7.50;82.70;;;;;;5094248;28;20024;-77
2022/04/18 03:05:17;;;;;;;3.17;1.88;;;7.50;82.90;;;;;;5093702;28;20020;-79
2022/04/18 03:07:43;;;;;;;2.67;1.70;;;7.50;82.50;;;;;;5094138;28;20024;-78
2022/04/18 03:10:09;;;;;;;3.72;1.75;;;7.50;82.70;;;;;;5094316;28;20020;-78
2022/04/18 03:12:35;;;;;;;2.33;1.52;;;7.60;82.90;;;;;;5094918;28;20469;-78
2022/04/18 03:15:01;;;;;;;1.77;1.58;;;7.60;82.90;;;;;;5095634;28;20027;-78
2022/04/18 03:17:27;;;;;;;4.50;2.33;;;7.50;82.70;;;;;;5094650;28;20020;-78
2022/04/18 03:19:53;;;;;;;2.58;1.73;;;7.50;83.20;;;;;;5093983;28;20020;-78
2022/04/18 03:22:19;;;;;;;3.55;1.80;;;7.40;84.30;;;;;;5093591;28;20028;-78
2022/04/18 03:24:45;;;;;;;4.53;2.00;;;7.40;84.50;;;;;;5094272;28;20030;-78
2022/04/18 03:27:11;;;;;;;2.67;1.70;;;7.30;85.00;;;;;;5095297;28;20364;-78
2022/04/18 03:29:37;;;;;;;2.72;1.90;;;7.40;85.20;;;;;;5093537;28;20070;-78
2022/04/18 03:32:04;;;;;;;3.67;2.03;;;7.40;85.80;;;;;;5094144;28;20388;-78
2022/04/18 03:34:29;;;;;;;2.20;1.90;;;7.30;85.90;;;;;;5093428;28;20027;-78
2022/04/18 03:39:51;;;;;;;2.53;1.83;;;7.30;86.10;;;;;;5095321;28;20039;-78
2022/04/18 03:42:19;;;;;;;4.72;1.70;;;7.30;86.50;;;;;;5093341;28;20028;-79
2022/04/18 03:44:46;;;;;;;3.22;1.55;;;7.40;86.00;;;;;;5093833;28;20022;-79
2022/04/18 03:47:14;;;;;;;2.53;1.92;;;7.40;84.60;;;;;;5093728;28;20020;-78
2022/04/18 03:49:40;;;;;;;2.45;1.80;;;7.40;84.10;;;;;;5093706;28;20016;-78
2022/04/18 03:52:07;;;;;;;5.50;2.40;;;7.40;84.90;;;;;;5094885;28;20020;-78
2022/04/18 03:54:34;;;;;;;3.22;1.70;;;7.40;86.40;;;;;;5093168;28;20027;-78
2022/04/18 03:57:03;;;;;;;3.58;1.83;;;7.40;86.90;;;;;;5094828;28;20465;-78
2022/04/18 03:59:29;;;;;;;3.97;1.80;;;7.30;87.60;;;;;;5092893;28;20016;-78
2022/04/18 04:01:55;;;;;;;3.67;1.90;;;7.30;87.90;;;;;;5076555;28;20044;-78
2022/04/18 04:04:21;;;;;;;4.18;2.13;;;7.20;89.10;;;;;;5092835;28;20361;-79
2022/04/18 04:06:47;;;;;;;3.00;1.70;;;7.20;90.00;;;;;;5093325;28;20350;-79
2022/04/18 04:09:12;;;;;;;2.92;1.80;;;7.10;90.00;;;;;;5093475;28;20016;-79
2022/04/18 04:11:38;;;;;;;5.23;2.00;;;7.10;90.30;;;;;;5092370;28;20028;-78
2022/04/18 04:14:04;;;;;;;2.97;2.00;;;7.00;90.40;;;;;;5092925;28;20116;-78
2022/04/18 04:16:30;;;;;;;3.70;2.08;;;6.90;90.70;;;;;;5093650;28;20050;-80
2022/04/18 04:18:56;;;;;;;3.20;2.05;;;6.90;91.00;;;;;;5093044;28;20020;-79
2022/04/18 04:21:22;;;;;;;5.60;2.30;;;6.90;91.50;;;;;;5093063;28;20038;-80
2022/04/18 04:23:47;;;;;;;2.97;1.70;;;6.90;91.40;;;;;;5093549;28;20345;-80
2022/04/18 04:26:13;;;;;;;3.03;1.83;;;6.80;91.90;;;;;;5093511;28;20436;-78
2022/04/18 04:28:38;;;;;;;3.27;1.87;;;6.80;91.80;;;;;;5093419;28;20027;-78
2022/04/18 04:31:04;;;;;;;3.75;2.20;;;6.70;91.70;;;;;;5093185;28;20082;-79
2022/04/18 04:33:30;;;;;;;3.83;1.80;;;6.70;92.20;;;;;;5093705;28;20412;-79
2022/04/18 04:36:00;;;;;;;4.23;1.90;;;6.60;92.60;;;;;;5093251;28;20024;-79
2022/04/18 04:38:26;;;;;;;3.77;2.00;;;6.70;92.50;;;;;;5092778;28;20059;-79
2022/04/18 04:40:53;;;;;;;5.00;1.90;;;6.70;92.50;;;;;;5094152;28;20024;-79
2022/04/18 04:43:27;;;;;;;4.28;2.10;;;6.70;92.50;;;;;;5093011;28;20026;-80
2022/04/18 04:45:56;;;;;;;4.33;2.00;;;6.70;92.90;;;;;;5093416;28;20149;-78
2022/04/18 04:48:23;;;;;;;3.73;2.00;;;6.60;93.30;;;;;;5092494;28;20111;-79
2022/04/18 04:50:49;;;;;;;2.00;1.70;;;6.60;93.40;;;;;;5092693;28;20040;-78
2022/04/18 04:53:15;;;;;;;4.00;2.40;;;6.50;93.50;;;;;;5092725;28;20468;-77
2022/04/18 04:55:41;;;;;;;12.13;5.20;;;6.50;93.90;;;;;;5092189;28;20023;-78
2022/04/18 04:58:09;;;;;;;6.10;2.83;;;6.40;94.00;;;;;;5093808;28;20036;-77
2022/04/18 05:00:38;;;;;;;4.10;2.40;;;6.40;94.10;;;;;;5091976;28;20054;-78
2022/04/18 05:03:04;;;;;;;2.70;1.97;;;6.40;93.90;;;;;;5092570;28;20028;-77
2022/04/18 05:05:29;;;;;;;3.20;1.93;;;6.30;94.00;;;;;;5092198;28;20395;-78
2022/04/18 05:07:55;;;;;;;3.07;2.13;;;6.40;94.00;;;;;;5092697;28;20114;-79
2022/04/18 05:10:21;;;;;;;4.03;2.20;;;6.40;94.10;;;;;;5092126;28;20073;-79
2022/04/18 05:12:47;;;;;;;5.50;2.10;;;6.40;94.00;;;;;;5093219;28;20032;-80
2022/04/18 05:15:14;;;;;;;9.87;2.07;;;6.50;93.90;;;;;;5092158;28;20031;-79
2022/04/18 05:17:39;;;;;;;3.30;1.90;;;6.60;93.60;;;;;;5092037;28;20024;-79
2022/04/18 05:20:06;;;;;;;3.53;1.93;;;6.60;93.80;;;;;;5093194;28;20069;-79
2022/04/18 05:22:31;;;;;;;3.43;1.90;;;6.50;93.60;;;;;;5091218;28;20032;-79
2022/04/18 05:24:58;;;;;;;4.07;2.20;;;6.60;93.70;;;;;;5091960;28;20035;-79
2022/04/18 05:27:24;;;;;;;3.83;2.20;;;6.70;94.00;;;;;;5091536;28;20118;-79
2022/04/18 05:29:50;;;;;;;2.17;1.97;;;6.80;93.60;;;;;;5093868;28;20500;-79
2022/04/18 05:32:16;;;;;;;2.87;1.90;;;6.80;93.50;;;;;;5097812;28;20032;-78
2022/04/18 05:34:42;;;;;;;3.70;2.30;;;6.90;92.60;;;;;;5095868;28;20086;-78
2022/04/18 05:37:08;;;;;;;3.60;2.10;;;7.00;91.90;;;;;;5095294;28;20032;-78
2022/04/18 05:39:34;;;;;;;3.93;1.83;;;7.10;91.80;;;;;;5096850;28;20404;-78
2022/04/18 05:41:59;;;;;;;5.07;2.20;;;7.10;92.10;;;;;;5096362;28;20035;-78
2022/04/18 05:44:25;;;;;;;8.23;2.50;;;7.10;92.50;;;;;;5097055;28;20098;-79
2022/04/18 05:46:51;;;;;;;4.23;2.20;;;7.10;92.70;;;;;;5097402;28;20027;-79
2022/04/18 05:49:17;;;;;;;3.07;2.10;;;7.10;92.70;;;;;;5097249;28;20411;-79
2022/04/18 05:51:43;;;;;;;6.27;2.43;;;7.20;92.20;;;;;;5095678;28;20050;-78
2022/04/18 05:54:09;;;;;;;7.90;2.50;;;7.20;91.80;;;;;;5096395;28;20024;-78
2022/04/18 05:56:35;;;;;;;4.13;2.40;;;7.20;91.80;;;;;;5095244;28;20044;-79
2022/04/18 05:59:01;;;;;;;3.17;2.20;;;7.30;92.90;;;;;;5095771;28;20024;-78
2022/04/18 06:01:28;;;;;;;4.45;2.17;;;7.30;93.70;;;;;;5095065;28;20520;-79
2022/04/18 06:03:55;;;;;;;3.42;2.25;;;7.40;93.10;;;;;;5095943;28;20020;-79
2022/04/18 06:06:21;;;;;;;5.65;2.50;;;7.40;93.00;;;;;;5096835;28;20085;-78
2022/04/18 06:08:47;;;;;;;3.10;2.08;;;7.50;93.00;;;;;;5096334;28;20032;-79
2022/04/18 06:11:13;;;;;;;2.65;1.73;;;7.50;92.50;;;;;;5095721;28;20106;-79
2022/04/18 06:13:39;;;;;;;4.45;2.33;;;7.50;92.70;;;;;;5095177;28;20028;-78
2022/04/18 06:16:05;;;;;;;4.15;1.90;;;7.60;91.90;;;;;;5095479;28;20020;-78
2022/04/18 06:18:31;;;;;;;3.35;2.00;;;7.70;90.70;;;;;;5094857;28;20024;-78
2022/04/18 06:20:56;;;;;;;4.43;1.90;;;7.70;90.70;;;;;;5095381;28;20035;-77
2022/04/18 06:23:22;;;;;;;2.72;1.95;;;7.80;90.50;;;;;;5096174;28;20028;-78
2022/04/18 06:25:49;;;;;;;4.60;1.95;;;7.90;89.60;;;;;;5094810;28;20028;-78
2022/04/18 06:28:14;;;;;;;4.03;1.88;;;7.90;89.60;;;;;;5094965;28;20056;-78
2022/04/18 06:30:40;;;;;;;5.82;2.47;;;8.00;90.00;;;;;;5095781;28;20028;-79
2022/04/18 06:33:10;;;;;;;3.50;1.92;;;7.90;90.20;;;;;;5095260;28;20035;-80
2022/04/18 06:35:36;;;;;;;3.38;2.00;;;8.00;89.20;;;;;;5094888;28;20035;-79
2022/04/18 06:38:02;;;;;;;5.45;2.15;;;8.10;89.60;;;;;;5096459;28;20036;-80
2022/04/18 06:40:27;;;;;;;5.65;2.05;;;8.20;89.20;;;;;;5094280;28;20106;-79
2022/04/18 06:42:53;;;;;;;4.43;2.20;;;8.20;88.00;;;;;;5095300;28;20038;-79
2022/04/18 06:45:19;;;;;;;4.07;2.20;;;8.30;88.70;;;;;;5095947;28;20020;-78
2022/04/18 06:47:44;;;;;;;3.28;1.70;;;8.40;86.20;;;;;;5094265;28;20317;-79
2022/04/18 06:50:12;;;;;;;4.85;1.83;;;8.40;84.70;;;;;;5096044;28;20032;-79
2022/04/18 06:52:50;;;;;;;5.03;2.95;;;8.50;84.40;;;;;;5094538;28;20035;-80
2022/04/18 06:55:16;;;;;;;2.92;2.00;;;8.60;83.60;;;;;;5094877;28;20024;-79
2022/04/18 06:57:42;;;;;;;4.15;1.50;;;8.60;83.60;;;;;;5095752;28;20093;-79
2022/04/18 07:00:09;;;;;;;3.10;1.83;;;8.60;84.10;;;;;;5094854;28;20028;-80
2022/04/18 07:02:35;;;;;;;2.63;1.65;;;8.70;82.70;;;;;;5094294;28;20058;-78
2022/04/18 07:05:01;;;;;;;3.60;1.60;;;8.80;83.90;;;;;;5095883;28;20024;-79
2022/04/18 07:07:26;;;;;;;3.33;2.13;;;8.90;83.50;;;;;;5094817;28;20036;-81
2022/04/18 07:09:52;;;;;;;4.50;2.10;;;8.90;82.70;;;;;;5095092;28;20062;-80
2022/04/18 07:12:22;;;;;;;4.03;2.00;;;8.90;81.50;;;;;;5094276;28;20035;-79
2022/04/18 07:14:48;;;;;;;3.22;1.70;;;9.00;81.40;;;;;;5094316;28;20047;-80
2022/04/18 07:17:14;;;;;;;4.20;1.60;;;9.10;80.80;;;;;;5095405;28;20107;-79
2022/04/18 07:19:39;;;;;;;3.08;1.85;;;9.20;79.70;;;;;;5093879;28;20067;-80
2022/04/18 07:22:06;;;;;;;3.20;1.88;;;9.20;79.90;;;;;;5094431;28;20131;-79
2022/04/18 07:24:32;;;;;;;4.60;2.15;;;9.30;79.40;;;;;;5093715;28;20039;-79
2022/04/18 07:27:03;;;;;;;3.92;1.83;;;9.30;79.40;;;;;;5093916;28;20024;-78
2022/04/18 07:29:29;;;;;;;3.35;2.00;;;9.40;79.40;;;;;;5093493;28;20480;-79
2022/04/18 07:31:55;;;;;;;3.38;2.22;;;9.40;78.00;;;;;;5093914;28;20036;-79
2022/04/18 07:34:20;;;;;;;3.10;2.03;;;9.50;77.00;;;;;;5094143;28;20066;-79
2022/04/18 07:36:46;;;;;;;5.85;2.10;;;9.60;77.40;;;;;;5093051;28;20039;-81
2022/04/18 07:39:12;;;;;;;4.25;1.80;;;9.60;77.10;;;;;;5093808;28;20027;-80
2022/04/18 07:41:37;;;;;;;3.17;1.92;;;9.60;77.60;;;;;;5093906;28;20040;-78
2022/04/18 07:44:03;;;;;;;3.47;1.73;;;9.70;78.10;;;;;;5091836;28;20405;-81
2022/04/18 07:46:29;;;;;;;3.72;1.95;;;9.70;75.50;;;;;;5092862;28;20073;-83
2022/04/18 07:48:56;;;;;;;4.32;2.03;;;9.80;74.20;;;;;;5093680;28;20035;-79
2022/04/18 07:51:35;;;;;;;7.88;3.45;;;9.90;74.40;;;;;;5092956;28;20065;-79
2022/04/18 07:54:03;;;;;;;2.97;2.22;;;9.90;72.60;;;;;;5093978;28;20044;-79
2022/04/18 07:56:28;;;;;;;4.70;2.50;;;10.00;74.20;;;;;;5093151;28;20044;-80
2022/04/18 07:58:54;;;;;;;4.30;2.13;;;10.00;74.40;;;;;;5092400;28;20043;-79
2022/04/18 08:01:20;;;;;;;3.17;2.10;;;10.10;72.30;;;;;;5091037;28;20036;-78
2022/04/18 08:03:47;;;;;;;3.35;1.83;;;10.20;73.70;;;;;;5092497;28;20028;-79
2022/04/18 08:06:13;;;;;;;3.35;2.08;;;10.20;73.20;;;;;;5092508;28;20469;-79
2022/04/18 08:08:39;;;;;;;3.75;2.08;;;10.30;74.10;;;;;;5091224;28;20024;-79
2022/04/18 08:11:05;;;;;;;5.13;1.92;;;10.30;73.60;;;;;;5092870;28;20016;-79
2022/04/18 08:13:31;;;;;;;3.95;2.08;;;10.40;72.80;;;;;;5091232;28;20093;-79
2022/04/18 08:15:57;;;;;;;3.42;2.00;;;10.50;74.40;;;;;;5084335;28;20461;-80
2022/04/18 08:18:23;;;;;;;3.75;2.10;;;10.50;75.60;;;;;;5087306;28;20112;-79
2022/04/18 08:20:49;;;;;;;3.47;2.00;;;10.50;73.10;;;;;;5088625;28;20102;-80
2022/04/18 08:23:15;;;;;;;2.65;1.73;;;10.60;70.30;;;;;;5089409;28;20106;-79
2022/04/18 08:25:41;;;;;;;3.75;2.17;;;10.80;70.50;;;;;;5089079;28;20024;-79
2022/04/18 08:28:08;;;;;;;3.90;2.15;;;10.80;69.50;;;;;;5089700;28;20085;-81
2022/04/18 08:30:33;;;;;;;4.63;2.13;;;10.80;71.10;;;;;;5088832;28;20032;-80
2022/04/18 08:32:59;;;;;;;2.25;1.67;;;10.80;69.30;;;;;;5089849;28;20042;-79
2022/04/18 08:35:26;;;;;;;2.70;1.95;;;10.90;69.60;;;;;;5090003;28;20035;-80
2022/04/18 08:37:51;;;;;;;4.28;2.13;;;10.90;70.50;;;;;;5089759;28;20050;-79
2022/04/18 08:40:18;;;;;;;5.53;2.33;;;10.90;70.30;;;;;;5089636;28;20032;-79
2022/04/18 08:42:44;;;;;;;3.90;1.98;;;10.90;69.80;;;;;;5087699;28;20594;-79
2022/04/18 08:45:12;;;;;;;3.90;2.00;;;11.10;68.10;;;;;;5088062;28;20050;-80
2022/04/18 08:53:14;;;;;;;4.50;2.17;;;11.30;67.60;;;;;;5089782;28;20042;-81
2022/04/18 08:55:41;;;;;;;4.18;2.42;;;11.40;68.10;;;;;;5089031;28;20043;-80
2022/04/18 08:58:07;;;;;;;5.60;2.20;;;11.40;68.30;;;;;;5088633;28;20059;-81
2022/04/18 09:00:33;;;;;;;3.85;2.10;;;11.40;67.60;;;;;;5088545;28;20476;-79
2022/04/18 09:02:59;;;;;;;3.95;1.90;;;11.50;69.00;;;;;;5088675;28;20064;-80
2022/04/18 09:05:25;;;;;;;7.70;3.05;;;11.50;67.60;;;;;;5096010;28;20119;-81
2022/04/18 09:07:59;;;;;;;4.63;2.60;;;11.50;66.70;;;;;;5095230;28;20456;-80
2022/04/18 09:10:25;;;;;;;5.63;2.45;;;11.50;67.90;;;;;;5095835;28;20104;-80
2022/04/18 09:12:51;;;;;;;7.25;2.75;;;11.60;68.50;;;;;;5096986;28;20070;-83
2022/04/18 09:15:36;;;;;;;4.78;2.17;;;11.70;67.20;;;;;;5092509;28;20513;-82
2022/04/18 09:18:08;;;;;;;4.20;1.90;;;11.80;66.40;;;;;;5093273;28;20363;-88
2022/04/18 09:20:47;;;;;;;6.75;2.78;;;11.80;68.10;;;;;;5093291;28;20035;-88
2022/04/18 09:23:26;;;;;;;3.53;1.70;;;11.90;68.90;;;;;;5101547;28;20043;-89
2022/04/18 09:26:07;;;;;;;2.67;1.70;;;11.90;69.00;;;;;;5104147;28;20013;-89
2022/04/18 09:28:38;;;;;;;7.10;2.72;;;12.10;67.40;;;;;;5096179;28;20020;-83
2022/04/18 09:31:12;;;;;;;3.88;1.80;;;12.20;66.70;;;;;;5088669;28;20487;-83
2022/04/18 09:33:37;;;;;;;4.07;1.83;;;12.20;65.60;;;;;;5095357;28;20169;-83
2022/04/18 09:36:10;;;;;;;2.92;1.90;;;12.30;64.10;;;;;;5095424;28;20481;-83
2022/04/18 09:38:38;;;;;;;2.63;1.60;;;12.30;63.20;;;;;;5097463;28;20050;-81
2022/04/18 09:41:05;;;;;;;4.65;1.90;;;12.40;63.50;;;;;;5097138;28;20077;-80
2022/04/18 09:43:42;;;;;;;4.50;1.90;;;12.40;67.40;;;;;;5096426;28;20039;-83
2022/04/18 09:46:09;;;;;;;4.90;1.70;;;12.40;61.00;;;;;;5096800;28;20032;-82
2022/04/18 09:48:36;;;;;;;3.83;1.77;;;12.60;64.10;;;;;;5097031;28;20073;-83
2022/04/18 09:51:09;;;;;;;3.67;1.52;;;12.60;63.50;;;;;;5099062;28;20028;-81
2022/04/18 09:53:37;;;;;;;3.35;2.00;;;12.70;63.00;;;;;;5097854;28;20032;-82
2022/04/18 09:56:03;;;;;;;3.70;1.90;;;12.70;63.70;;;;;;5098367;28;20031;-81
2022/04/18 09:58:32;;;;;;;4.35;1.90;;;12.80;63.30;;;;;;5098552;28;20077;-82
2022/04/18 10:01:02;;;;;;;5.13;2.13;;;12.90;63.10;;;;;;5099259;28;20099;-82
2022/04/18 10:03:28;;;;;;;2.72;1.70;;;13.10;64.40;;;;;;5097898;28;20028;-82
2022/04/18 10:05:55;;;;;;;2.75;1.42;;;13.10;62.70;;;;;;5097842;28;20031;-81
2022/04/18 10:08:21;;;;;;;2.72;1.50;;;13.20;64.30;;;;;;5098759;28;20035;-82
2022/04/18 10:10:47;;;;;;;3.88;1.67;;;13.30;64.10;;;;;;5098527;28;20028;-83
2022/04/18 10:13:13;;;;;;;3.97;1.63;;;13.40;63.70;;;;;;5099975;28;20103;-82
2022/04/18 10:15:39;;;;;;;3.22;2.00;;;13.50;63.50;;;;;;5095626;28;20503;-83
2022/04/18 10:18:07;;;;;;;11.38;6.50;;;13.40;60.00;;;;;;5093971;28;20020;-83
2022/04/18 10:20:52;;;;;;;5.60;2.35;;;13.40;60.90;;;;;;5097375;28;20050;-84
2022/04/18 10:23:17;;;;;;;4.97;2.20;;;13.50;58.80;;;;;;5097500;28;20036;-79
2022/04/18 10:25:58;;;;;;;4.63;1.90;;;13.60;60.40;;;;;;5098404;28;20032;-82
2022/04/18 10:28:34;;;;;;;2.72;1.75;;;13.50;61.80;;;;;;5100125;28;20358;-80
2022/04/18 10:31:02;;;;;;;2.20;1.40;;;13.70;62.20;;;;;;5096405;28;20073;-82
2022/04/18 10:33:28;;;;;;;5.68;1.70;;;13.80;64.20;;;;;;5095582;28;20032;-79
2022/04/18 10:36:00;;;;;;;4.72;2.13;;;13.80;59.60;;;;;;5076826;28;20021;-78
2022/04/18 10:38:27;;;;;;;4.85;2.00;;;13.90;59.20;;;;;;5077111;28;20029;-78
2022/04/18 10:43:58;;;;;;;4.85;1.98;;;13.80;56.90;;;;;;5075817;28;20119;-79
2022/04/18 10:46:24;;;;;;;4.57;1.63;;;13.80;55.70;;;;;;5095383;28;20025;-78
2022/04/18 10:49:12;;;;;;;4.90;1.65;;;13.80;56.90;;;;;;5093535;28;20393;-77
2022/04/18 10:51:40;;;;;;;3.13;1.90;;;13.80;57.90;;;;;;5093387;28;20550;-78
2022/04/18 10:54:16;;;;;;;4.50;1.85;;;13.80;56.70;;;;;;5094303;28;20052;-79
2022/04/18 10:56:47;;;;;;;3.05;1.88;;;13.90;57.50;;;;;;5093355;28;20083;-80
2022/04/18 10:59:14;;;;;;;5.03;1.77;;;14.00;60.40;;;;;;5095010;28;20048;-79
2022/04/18 11:01:40;;;;;;;2.42;1.52;;;14.10;60.00;;;;;;5095335;28;20032;-78
2022/04/18 11:04:13;;;;;;;3.40;1.70;;;14.10;59.20;;;;;;5096757;28;20118;-79
2022/04/18 11:06:39;;;;;;;3.78;1.80;;;14.30;58.60;;;;;;5096468;28;20036;-78
2022/04/18 11:09:14;;;;;;;3.22;1.83;;;14.30;55.90;;;;;;5096780;28;20058;-77
2022/04/18 11:12:06;;;;;;;3.92;2.00;;;14.40;56.60;;;;;;5096013;28;20057;-79
2022/04/18 11:14:37;;;;;;;2.00;1.50;;;14.50;56.80;;;;;;5096337;28;20027;-78
2022/04/18 11:17:05;;;;;;;3.00;1.52;;;14.60;58.10;;;;;;5095624;28;20032;-78
2022/04/18 11:19:35;;;;;;;4.70;1.58;;;14.60;57.00;;;;;;5095806;28;20036;-78
2022/04/18 11:22:01;;;;;;;3.30;1.40;;;14.50;57.10;;;;;;5095777;28;20044;-78
2022/04/18 11:24:49;;;;;;;4.10;1.98;;;14.60;61.00;;;;;;5096596;28;20024;-78
2022/04/18 11:27:26;;;;;;;3.83;1.60;;;14.70;58.20;;;;;;5096061;28;20338;-79
2022/04/18 11:29:59;;;;;;;4.60;1.88;;;14.80;59.60;;;;;;5095114;28;20216;-76
2022/04/18 11:32:29;;;;;;;3.25;1.75;;;14.80;57.00;;;;;;5095022;28;20070;-84
2022/04/18 11:34:57;;;;;;;3.53;1.75;;;14.90;57.80;;;;;;5093067;28;20024;-81
2022/04/18 11:37:28;;;;;;;3.70;1.52;;;14.80;58.00;;;;;;5090770;28;20036;-78
2022/04/18 11:39:56;;;;;;;2.92;1.95;;;15.00;60.20;;;;;;5073825;28;20016;-78
2022/04/18 11:42:27;;;;;;;3.20;1.58;;;15.10;59.70;;;;;;5090108;28;20048;-78
2022/04/18 11:44:55;;;;;;;3.45;1.60;;;15.20;59.20;;;;;;5088618;28;20024;-78
2022/04/18 11:47:31;;;;;;;2.75;1.80;;;15.30;57.30;;;;;;5091841;28;20028;-78
2022/04/18 11:49:58;;;;;;;5.20;1.60;;;15.30;58.20;;;;;;5072048;28;20420;-78
2022/04/18 11:52:36;;;;;;;2.60;1.70;;;15.40;59.70;;;;;;5071419;28;20029;-79
2022/04/18 11:55:09;;;;;;;2.53;1.58;;;15.50;57.90;;;;;;5071778;28;20123;-78
2022/04/18 11:57:36;;;;;;;3.22;1.55;;;15.50;58.00;;;;;;5071942;28;20045;-79
2022/04/18 12:00:11;;;;;;;3.92;1.65;;;15.60;58.20;;;;;;5072372;28;20054;-78
2022/04/18 12:08:11;;;;;;;3.22;1.70;;;16.00;55.70;;;;;;5073804;28;20214;-78
2022/04/18 12:10:41;;;;;;;3.80;1.77;;;16.10;57.30;;;;;;5081045;28;20078;-79
2022/04/18 12:13:10;;;;;;;3.83;2.03;;;16.10;54.80;;;;;;5091796;28;20063;-80
2022/04/18 12:15:37;;;;;;;6.03;2.10;;;16.30;53.80;;;;;;5089891;28;20039;-82
2022/04/18 12:18:12;;;;;;;4.63;2.10;;;16.30;52.30;;;;;;5092297;28;20028;-85
2022/04/18 12:20:56;;;;;;;4.28;2.15;;;16.30;52.10;;;;;;5091029;28;20024;-85
2022/04/18 12:23:24;;;;;;;5.57;2.10;;;16.60;55.90;;;;;;5093569;28;20071;-86
2022/04/18 12:25:51;;;;;;;3.10;1.48;;;16.80;54.30;;;;;;5092448;28;20091;-85
2022/04/18 12:28:20;;;;;;;4.43;1.83;;;16.90;52.80;;;;;;5091644;28;20089;-85
2022/04/18 12:30:49;;;;;;;3.40;2.00;;;17.00;53.90;;;;;;5092904;28;20027;-85
2022/04/18 12:33:24;;;;;;;2.97;1.90;;;17.20;55.20;;;;;;5093250;28;20060;-85
2022/04/18 12:35:51;;;;;;;3.97;1.95;;;17.40;53.30;;;;;;5092736;28;20024;-85
2022/04/18 12:38:29;;;;;;;3.13;2.03;;;17.60;54.80;;;;;;5092578;28;20036;-84
2022/04/18 12:40:58;;;;;;;3.55;1.63;;;17.70;52.10;;;;;;5092709;28;20120;-88
2022/04/18 12:43:32;;;;;;;3.22;1.92;;;18.00;54.00;;;;;;5092840;28;20043;-80
2022/04/18 12:46:00;;;;;;;2.28;1.77;;;18.10;52.90;;;;;;5092041;28;20031;-79
2022/04/18 12:48:31;;;;;;;3.97;2.30;;;18.30;52.10;;;;;;5091722;28;20028;-78
2022/04/18 12:50:59;;;;;;;4.95;2.03;;;18.40;49.90;;;;;;5091483;28;20034;-80
2022/04/18 12:53:45;;;;;;;2.67;1.70;;;18.40;48.30;;;;;;5092370;28;20358;-80
2022/04/18 12:56:11;;;;;;;5.45;2.40;;;18.60;50.60;;;;;;5092017;28;20935;-80
2022/04/18 12:58:41;;;;;;;3.28;2.10;;;18.80;50.30;;;;;;5091675;28;20032;-80
2022/04/18 13:01:07;;;;;;;4.25;2.28;;;19.00;48.20;;;;;;5092294;28;20078;-80
2022/04/18 13:03:44;;;;;;;4.28;2.22;;;19.00;47.40;;;;;;5092901;28;20094;-83
2022/04/18 13:06:10;;;;;;;3.53;2.03;;;19.20;49.10;;;;;;5092453;28;20028;-80
2022/04/18 13:08:40;;;;;;;4.28;2.35;;;19.40;47.80;;;;;;5094559;28;20035;-81
2022/04/18 13:11:07;;;;;;;3.85;2.20;;;19.40;45.90;;;;;;5094766;28;20058;-79
2022/04/18 13:13:33;;;;;;;3.08;2.00;;;19.60;46.20;;;;;;5094895;28;20074;-80
2022/04/18 13:16:19;;;;;;;4.35;2.30;;;19.80;46.60;;;;;;5095833;28;20465;-79
2022/04/18 13:18:45;;;;;;;4.38;2.17;;;20.40;47.30;;;;;;5092714;28;20492;-81